Sun Trader — WDG9703 — position and weather

sailwx.info

Track history (hours):
 
Tides and Currents Weather Stations Pressure Air Temp Water Temp Dewpoint Dewpoint Depression Visibility Wind Speed Wind Dir Waves Ship Positions

Sun Trader

Owner: Vane Line Bunkering INC, Philadelphia, PA. More information available from US FCC via Universal Licensing System and Coast Guard Vessel Documentation Center.

Last reported at 2018-Jun-28 14:07 UTC. Time now 2018-Jul-22 12:53 UTC.
Position N 32°06' W 081°07'.
Warning: this ship's position is 23 days out of date.

Length 17 m; draft 2.3 m.

Type: Tug. MMSI: 367590460.

Date/timePositionNaut miles runAvg speedWind from/ knotsBaromVisibWave heightAir tempDewpointWater temp
2018-Jun-28 14:07N 32°06' W 081°07'0 0.0
2018-Jun-28 14:00N 32°06' W 081°07'0 0.2
2018-Jun-28 13:30N 32°06' W 081°06'2 3.8
2018-Jun-28 13:00N 32°05' W 081°05'3 6.2
2018-Jun-28 12:30N 32°06' W 081°01'3 6.0
2018-Jun-28 12:00N 32°04' W 080°58'2 4.5
2018-Jun-28 11:30N 32°05' W 080°55'2 3.7
2018-Jun-28 10:58N 32°07' W 080°54'2 4.8
2018-Jun-28 10:30N 32°08' W 080°52'3 5.8
2018-Jun-28 09:59N 32°10' W 080°49'9 4.2
2018-Jun-28 07:47N 32°16' W 080°41'45 3.7
2018-Jun-27 19:36N 32°46' W 080°02'1 5.6
2018-Jun-27 19:28N 32°46' W 080°01'2 5.2
2018-Jun-27 19:00N 32°46' W 079°58'3 4.9
2018-Jun-27 18:29N 32°46' W 079°55'3 6.1
2018-Jun-27 18:00N 32°49' W 079°56'  
Track history (hours):
 
Tides and Currents Weather Stations Pressure Air Temp Water Temp Dewpoint Dewpoint Depression Visibility Wind Speed Wind Dir Waves Ship Positions

Sun Trader

Owner: Vane Line Bunkering INC, Philadelphia, PA. More information available from US FCC via Universal Licensing System and Coast Guard Vessel Documentation Center.

Last reported at 2018-Jun-28 14:07 UTC. Time now 2018-Jul-22 12:53 UTC.
Position N 32°06' W 081°07'.
Warning: this ship's position is 23 days out of date.

Length 17 m; draft 2.3 m.

Type: Tug. MMSI: 367590460.

Date/timePositionNaut miles runAvg speedWind from/ knotsBaromVisibWave heightAir tempDewpointWater temp
2018-Jun-28 14:07N 32°06' W 081°07'0 0.0
2018-Jun-28 14:00N 32°06' W 081°07'0 0.2
2018-Jun-28 13:30N 32°06' W 081°06'2 3.8
2018-Jun-28 13:00N 32°05' W 081°05'3 6.2
2018-Jun-28 12:30N 32°06' W 081°01'3 6.0
2018-Jun-28 12:00N 32°04' W 080°58'2 4.5
2018-Jun-28 11:30N 32°05' W 080°55'2 3.7
2018-Jun-28 10:58N 32°07' W 080°54'2 4.8
2018-Jun-28 10:30N 32°08' W 080°52'3 5.8
2018-Jun-28 09:59N 32°10' W 080°49'9 4.2
2018-Jun-28 07:47N 32°16' W 080°41'45 3.7
2018-Jun-27 19:36N 32°46' W 080°02'1 5.6
2018-Jun-27 19:28N 32°46' W 080°01'2 5.2
2018-Jun-27 19:00N 32°46' W 079°58'3 4.9
2018-Jun-27 18:29N 32°46' W 079°55'3 6.1
2018-Jun-27 18:00N 32°49' W 079°56'  

Dump ship's entire track history